Time;durP1;ratioP1;P1;durP2;ratioP2;P2;SDS_P1;SDS_P2;PMS_P1;PMS_P2;Temp;Humidity;BMP_temperature;BMP_pressure;BME280_temperature;BME280_humidity;BME280_pressure;Samples;Min_cycle;Max_cycle;Signal;HPM_P1;HPM_P2
2022/08/24 00:00:07;;;;;;;5.87;4.50;;;;;;;16.51;100.00;101113.25;5045697;28;20195;-70
2022/08/24 00:02:34;;;;;;;5.70;4.50;;;;;;;16.50;100.00;101114.19;5049476;28;20226;-70
2022/08/24 00:05:03;;;;;;;9.63;4.37;;;;;;;16.50;100.00;101110.66;5049642;28;20862;-70
2022/08/24 00:07:30;;;;;;;4.13;3.73;;;;;;;16.48;100.00;101116.03;5046372;28;20652;-70
2022/08/24 00:09:58;;;;;;;4.13;3.73;;;;;;;16.50;100.00;101118.56;5046651;28;20203;-70
2022/08/24 00:12:25;;;;;;;4.93;4.20;;;;;;;16.46;100.00;101124.00;5039950;28;20254;-69
2022/08/24 00:14:52;;;;;;;5.33;4.53;;;;;;;16.43;100.00;101116.22;5041055;28;20722;-70
2022/08/24 00:17:19;;;;;;;4.40;4.00;;;;;;;16.41;100.00;101125.06;5047740;28;20222;-70
2022/08/24 00:19:45;;;;;;;5.13;4.17;;;;;;;16.37;100.00;101127.00;5044757;28;20560;-69
2022/08/24 00:22:13;;;;;;;4.40;4.00;;;;;;;16.34;100.00;101118.38;5023788;28;20423;-70
2022/08/24 00:24:40;;;;;;;6.83;4.40;;;;;;;16.31;100.00;101126.41;5049425;28;20219;-69
2022/08/24 00:27:07;;;;;;;4.83;4.03;;;;;;;16.29;100.00;101123.84;5048032;28;20207;-70
2022/08/24 00:29:35;;;;;;;4.87;3.97;;;;;;;16.26;100.00;101129.22;5026886;28;20249;-69
2022/08/24 00:32:02;;;;;;;6.30;4.77;;;;;;;16.23;100.00;101132.81;5037073;28;20533;-70
2022/08/24 00:34:30;;;;;;;5.20;4.67;;;;;;;16.23;100.00;101129.34;5023662;28;20405;-70
2022/08/24 00:36:57;;;;;;;7.30;4.30;;;;;;;16.18;100.00;101121.66;5020849;28;20207;-70
2022/08/24 00:39:25;;;;;;;4.83;4.23;;;;;;;16.16;100.00;101127.91;5041870;28;20203;-70
2022/08/24 00:41:52;;;;;;;5.90;4.70;;;;;;;16.14;100.00;101121.84;5048233;28;20227;-70
2022/08/24 00:44:21;;;;;;;5.33;4.70;;;;;;;16.13;100.00;101126.25;5027013;28;20234;-69
2022/08/24 00:46:51;;;;;;;5.93;4.60;;;;;;;16.13;100.00;101126.25;5047330;28;20199;-69
2022/08/24 00:49:23;;;;;;;5.43;4.40;;;;;;;16.11;100.00;101127.22;5028560;28;20204;-70
2022/08/24 00:51:55;;;;;;;7.37;4.83;;;;;;;16.08;100.00;101121.19;5021502;28;20875;-70
2022/08/24 00:54:25;;;;;;;4.80;4.10;;;;;;;16.05;100.00;101123.09;5045527;28;20221;-69
2022/08/24 00:56:57;;;;;;;5.67;4.63;;;;;;;16.02;100.00;101134.59;5021234;28;20312;-70
2022/08/24 00:59:29;;;;;;;6.00;4.97;;;;;;;15.99;100.00;101133.84;5042284;28;20278;-70
2022/08/24 01:01:58;;;;;;;5.83;4.37;;;;;;;15.95;100.00;101140.16;5040387;28;20216;-70
2022/08/24 01:04:29;;;;;;;8.33;4.80;;;;;;;15.96;100.00;101139.25;5044472;28;20223;-71
2022/08/24 01:06:56;;;;;;;5.67;4.60;;;;;;;15.90;100.00;101140.34;5027036;28;20203;-70
2022/08/24 01:09:22;;;;;;;6.97;4.97;;;;;;;15.89;100.00;101138.63;5039820;28;20203;-69
2022/08/24 01:11:49;;;;;;;4.83;4.30;;;;;;;15.89;100.00;101136.84;5031541;28;20694;-70
2022/08/24 01:14:20;;;;;;;5.23;4.70;;;;;;;15.87;100.00;101135.22;5038321;28;20219;-69
2022/08/24 01:19:36;;;;;;;5.23;4.43;;;;;;;15.83;100.00;101131.84;5025717;28;20196;-70
2022/08/24 01:22:25;;;;;;;5.80;4.87;;;;;;;15.81;100.00;101131.06;5026283;28;20222;-70
2022/08/24 01:24:54;;;;;;;4.63;4.00;;;;;;;15.78;100.00;101130.31;5034129;28;20230;-70
2022/08/24 01:27:21;;;;;;;5.73;4.70;;;;;;;15.75;100.00;101131.28;5025512;28;20226;-69
2022/08/24 01:29:48;;;;;;;5.13;4.60;;;;;;;15.69;100.00;101135.00;5036337;28;20739;-70
2022/08/24 01:32:14;;;;;;;6.17;5.03;;;;;;;15.69;100.00;101135.00;5044190;28;20199;-70
2022/08/24 01:38:28;;;;;;;5.87;5.00;;;;;;;15.66;100.00;101137.72;5043580;28;20210;-70
2022/08/24 01:41:01;;;;;;;6.13;4.83;;;;;;;15.64;100.00;101126.44;5044760;28;20914;-70
2022/08/24 01:43:29;;;;;;;6.43;4.63;;;;;;;15.62;100.00;101122.13;5026659;28;20432;-70
2022/08/24 01:45:55;;;;;;;4.77;4.33;;;;;;;15.60;100.00;101126.59;5049472;28;20758;-70
2022/08/24 01:48:22;;;;;;;7.13;5.50;;;;;;;15.61;100.00;101123.91;5024207;28;20213;-69
2022/08/24 01:50:50;;;;;;;6.87;5.37;;;;;;;15.58;100.00;101131.91;5020433;28;20221;-70
2022/08/24 01:53:18;;;;;;;6.33;4.67;;;;;;;15.58;100.00;101128.44;5025464;28;20699;-70
2022/08/24 01:55:45;;;;;;;4.60;4.20;;;;;;;15.53;100.00;101133.84;5043029;28;20254;-70
2022/08/24 01:58:13;;;;;;;6.77;4.80;;;;;;;15.53;100.00;101131.22;5016614;28;20195;-70
2022/08/24 02:00:41;;;;;;;4.30;3.80;;;;;;;15.50;100.00;101134.00;5047581;28;20195;-69
2022/08/24 02:03:08;;;;;;;7.73;5.17;;;;;;;15.47;100.00;101134.94;5047461;28;20351;-70
2022/08/24 02:05:35;;;;;;;6.00;4.57;;;;;;;15.46;100.00;101132.38;5021364;28;20566;-70
2022/08/24 02:08:02;;;;;;;5.60;4.20;;;;;;;15.42;100.00;101139.53;5022771;28;20199;-69
2022/08/24 02:10:29;;;;;;;5.10;4.50;;;;;;;15.38;100.00;101135.31;5031267;28;20195;-70
2022/08/24 02:12:58;;;;;;;5.50;4.63;;;;;;;15.36;100.00;101133.69;5025128;28;20226;-70
2022/08/24 02:15:30;;;;;;;7.57;4.43;;;;;;;15.37;100.00;101130.13;5019501;28;20200;-70
2022/08/24 02:17:57;;;;;;;4.70;4.20;;;;;;;15.37;100.00;101136.22;5025602;28;20199;-69
2022/08/24 02:20:25;;;;;;;5.97;5.00;;;;;;;15.37;100.00;101133.59;5038355;28;20195;-70
2022/08/24 02:22:53;;;;;;;6.23;4.57;;;;;;;15.30;100.00;101134.72;5054674;28;21199;-69
2022/08/24 02:25:20;;;;;;;5.77;4.80;;;;;;;15.36;100.00;101128.41;5030221;28;20207;-70
2022/08/24 02:27:48;;;;;;;5.33;4.83;;;;;;;15.31;100.00;101128.59;5047515;28;20187;-70
2022/08/24 02:30:15;;;;;;;4.93;4.40;;;;;;;15.26;100.00;101134.00;5032751;28;20206;-69
2022/08/24 02:32:43;;;;;;;5.63;5.03;;;;;;;15.24;100.00;101141.09;5048582;28;20203;-71
2022/08/24 02:35:10;;;;;;;6.13;5.10;;;;;;;15.32;100.00;101143.44;5015460;28;20287;-70
2022/08/24 02:37:37;;;;;;;5.40;4.50;;;;;;;15.28;100.00;101140.03;5021339;28;20677;-69
2022/08/24 02:40:04;;;;;;;5.87;5.17;;;;;;;15.25;100.00;101140.19;5050350;28;20202;-70
2022/08/24 02:42:30;;;;;;;6.07;4.73;;;;;;;15.22;100.00;101131.56;5038671;28;20297;-70
2022/08/24 02:44:57;;;;;;;5.63;4.83;;;;;;;15.19;100.00;101132.53;5023252;28;20218;-70
2022/08/24 02:47:24;;;;;;;5.03;4.23;;;;;;;15.19;100.00;101134.28;5017495;28;20234;-69
2022/08/24 02:49:54;;;;;;;5.07;4.40;;;;;;;15.17;100.00;101126.47;5026715;28;20635;-70
2022/08/24 02:52:20;;;;;;;5.57;4.40;;;;;;;15.17;100.00;101139.59;5040842;28;20192;-70
2022/08/24 02:54:47;;;;;;;6.07;4.77;;;;;;;15.13;100.00;101138.84;5046286;28;20601;-70
2022/08/24 02:57:14;;;;;;;5.23;4.60;;;;;;;15.12;100.00;101144.16;5031781;28;20210;-70
2022/08/24 02:59:41;;;;;;;5.27;4.40;;;;;;;15.07;100.00;101146.09;5020325;28;20214;-70
2022/08/24 03:02:07;;;;;;;8.53;5.13;;;;;;;15.04;100.00;101146.22;5021659;28;20583;-70
2022/08/24 03:04:35;;;;;;;4.60;3.87;;;;;;;15.05;100.00;101132.19;5050150;28;20225;-70
2022/08/24 03:07:05;;;;;;;4.93;3.93;;;;;;;15.05;100.00;101142.69;5028753;28;20211;-69
2022/08/24 03:09:31;;;;;;;6.40;4.23;;;;;;;15.03;100.00;101145.34;5027680;28;20211;-70
2022/08/24 03:11:58;;;;;;;6.10;4.80;;;;;;;15.04;100.00;101144.47;5029543;28;20192;-70
2022/08/24 03:14:24;;;;;;;5.90;3.90;;;;;;;15.07;100.00;101140.84;5045109;28;20226;-70
2022/08/24 03:16:51;;;;;;;4.50;4.10;;;;;;;15.03;100.00;101141.88;5019121;28;20226;-69
2022/08/24 03:19:17;;;;;;;4.30;3.90;;;;;;;14.97;100.00;101140.34;5027208;28;20213;-70
2022/08/24 03:21:45;;;;;;;4.73;4.20;;;;;;;15.02;100.00;101148.03;5022928;28;20635;-72
2022/08/24 03:24:13;;;;;;;7.40;4.20;;;;;;;15.00;100.00;101152.50;5030464;28;20599;-71
2022/08/24 03:26:40;;;;;;;4.47;4.00;;;;;;;14.98;100.00;101151.69;5028339;28;20791;-72
2022/08/24 03:29:07;;;;;;;5.10;4.37;;;;;;;14.92;100.00;101153.63;5055906;28;20221;-72
2022/08/24 03:31:34;;;;;;;5.73;4.40;;;;;;;14.88;100.00;101157.28;5028851;28;20206;-71
2022/08/24 03:34:01;;;;;;;4.53;4.00;;;;;;;14.85;100.00;101159.16;5023905;28;20309;-71
2022/08/24 03:36:28;;;;;;;5.17;4.13;;;;;;;14.82;100.00;101157.47;5032662;28;20227;-74
2022/08/24 03:38:54;;;;;;;5.80;4.37;;;;;;;14.85;100.00;101161.78;5043850;28;20199;-72
2022/08/24 03:41:22;;;;;;;4.97;3.80;;;;;;;14.84;100.00;101170.56;5043398;28;20249;-72
2022/08/24 03:43:48;;;;;;;5.50;4.53;;;;;;;14.83;100.00;101166.22;5022371;28;20222;-72
2022/08/24 03:46:23;;;;;;;5.57;4.93;;;;;;;14.83;100.00;101171.47;5039930;28;20210;-72
2022/08/24 03:48:51;;;;;;;6.10;4.70;;;;;;;14.83;100.00;101169.72;5024291;28;20208;-72
2022/08/24 03:51:23;;;;;;;4.73;4.23;;;;;;;14.79;100.00;101172.50;5029136;28;20214;-71
2022/08/24 03:53:51;;;;;;;5.47;4.30;;;;;;;14.79;100.00;101172.50;5051516;28;20285;-71
2022/08/24 03:56:18;;;;;;;5.77;4.13;;;;;;;14.78;100.00;101182.13;5023270;28;20199;-71
2022/08/24 03:58:46;;;;;;;5.17;4.67;;;;;;;14.77;100.00;101173.41;5030078;28;20212;-71
2022/08/24 04:01:14;;;;;;;4.57;3.97;;;;;;;14.77;100.00;101167.28;5043460;28;20580;-74
2022/08/24 04:03:43;;;;;;;5.23;4.07;;;;;;;14.76;100.00;101174.31;5028252;28;20291;-71
2022/08/24 04:06:13;;;;;;;5.93;4.93;;;;;;;14.71;100.00;101178.88;5023097;28;20294;-73
2022/08/24 04:08:40;;;;;;;5.67;4.53;;;;;;;14.70;100.00;101182.38;5030845;28;20602;-72
2022/08/24 04:11:10;;;;;;;5.00;4.50;;;;;;;14.63;100.00;101182.66;5030686;28;20206;-72
2022/08/24 04:13:37;;;;;;;5.23;4.43;;;;;;;14.62;100.00;101189.69;5021012;28;20223;-74
2022/08/24 04:16:07;;;;;;;4.30;3.87;;;;;;;14.66;100.00;101187.81;5020942;28;20677;-73
2022/08/24 04:18:34;;;;;;;4.47;3.67;;;;;;;14.70;100.00;101185.00;5024066;28;20278;-73
2022/08/24 04:21:01;;;;;;;5.17;4.47;;;;;;;14.70;100.00;101186.78;5028620;28;20726;-71
2022/08/24 04:23:28;;;;;;;4.57;4.10;;;;;;;14.71;100.00;101181.50;5027424;28;20317;-73
2022/08/24 04:25:54;;;;;;;4.93;4.07;;;;;;;14.73;100.00;101195.41;5045263;28;20294;-71
2022/08/24 04:28:22;;;;;;;4.90;4.40;;;;;;;14.75;100.00;101187.50;5029240;28;20221;-71
2022/08/24 04:30:50;;;;;;;5.20;4.10;;;;;;;14.79;100.00;101189.09;5051155;28;20270;-72
2022/08/24 04:33:27;;;;;;;5.80;4.40;;;;;;;14.83;100.00;101189.84;5033731;28;20986;-71
2022/08/24 04:35:53;;;;;;;5.63;4.47;;;;;;;14.84;100.00;101186.31;5029131;28;20245;-71
2022/08/24 04:38:23;;;;;;;4.77;4.27;;;;;;;14.89;100.00;101187.84;5024294;28;20289;-73
2022/08/24 04:41:05;;;;;;;5.70;4.40;;;;;;;14.90;100.00;101183.50;5029201;28;20294;-73
2022/08/24 04:43:32;;;;;;;5.10;4.37;;;;;;;15.00;100.00;101184.00;5023424;28;20250;-72
2022/08/24 04:45:59;;;;;;;5.70;4.67;;;;;;;15.02;100.00;101182.16;5022219;28;20210;-73
2022/08/24 04:48:27;;;;;;;6.90;5.10;;;;;;;15.03;100.00;101191.78;5047651;28;20603;-71
2022/08/24 04:50:53;;;;;;;6.87;4.90;;;;;;;15.03;100.00;101183.91;5038626;28;20654;-72
2022/08/24 04:53:19;;;;;;;8.13;6.43;;;;;;;15.04;100.00;101186.47;5042238;28;20612;-71
2022/08/24 04:55:49;;;;;;;8.20;6.70;;;;;;;15.04;100.00;101194.34;5029594;28;20203;-72
2022/08/24 04:58:18;;;;;;;6.83;5.90;;;;;;;15.08;100.00;101195.94;5029398;28;20210;-73
2022/08/24 05:00:45;;;;;;;7.67;6.43;;;;;;;15.12;100.00;101200.16;5041582;28;20782;-72
2022/08/24 05:03:12;;;;;;;9.63;6.97;;;;;;;15.17;100.00;101207.03;5027287;28;20246;-72
2022/08/24 05:05:41;;;;;;;15.77;7.27;;;;;;;15.25;100.00;101207.59;5037279;28;20199;-73
2022/08/24 05:08:09;;;;;;;8.97;6.50;;;;;;;15.26;100.00;101214.59;5026681;28;20665;-72
2022/08/24 05:10:37;;;;;;;11.50;7.63;;;;;;;15.29;100.00;101214.47;5026711;28;20206;-72
2022/08/24 05:13:06;;;;;;;9.87;7.50;;;;;;;15.31;100.00;101221.38;5045056;28;20221;-73
2022/08/24 05:15:33;;;;;;;11.80;7.87;;;;;;;15.34;100.00;101216.03;5024864;28;20691;-72
2022/08/24 05:18:00;;;;;;;8.83;7.33;;;;;;;15.40;100.00;101216.72;5022920;28;20221;-73
2022/08/24 05:20:27;;;;;;;10.03;7.20;;;;;;;15.48;100.00;101220.78;5045506;28;20195;-72
2022/08/24 05:22:55;;;;;;;9.33;7.20;;;;;;;15.50;100.00;101225.97;5044211;28;20266;-72
2022/08/24 05:25:22;;;;;;;9.00;7.53;;;;;;;15.56;100.00;101228.34;5044077;28;20215;-73
2022/08/24 05:27:49;;;;;;;9.97;7.37;;;;;;;15.60;100.00;101229.09;5044816;28;20683;-73
2022/08/24 05:30:16;;;;;;;11.93;8.13;;;;;;;15.66;100.00;101229.72;5024153;28;20211;-73
2022/08/24 05:32:42;;;;;;;14.17;9.83;;;;;;;15.73;100.00;101225.09;5042126;28;20195;-70
2022/08/24 05:35:09;;;;;;;12.70;9.00;;;;;;;15.81;100.00;101228.34;5023752;28;20209;-70
2022/08/24 05:37:37;;;;;;;12.53;8.30;;;;;;;15.95;100.00;101219.88;5050271;28;20743;-70
2022/08/24 05:40:25;;;;;;;11.10;8.40;;;;;;;16.06;100.00;101222.13;5040784;28;20206;-70
2022/08/24 05:42:55;;;;;;;12.20;8.57;;;;;;;16.16;100.00;101222.59;5047606;28;20273;-70
2022/08/24 05:45:22;;;;;;;14.40;9.00;;;;;;;16.21;100.00;101221.47;5054417;28;20208;-70
2022/08/24 05:47:50;;;;;;;12.07;8.87;;;;;;;16.28;100.00;101228.22;5025350;28;20652;-70
2022/08/24 05:50:39;;;;;;;15.63;9.53;;;;;;;16.28;100.00;101232.63;5028606;28;20655;-69
2022/08/24 05:53:07;;;;;;;14.70;9.43;;;;;;;16.26;100.00;101230.06;5032291;28;20238;-70
2022/08/24 05:55:39;;;;;;;14.90;9.63;;;;;;;16.33;100.00;101235.09;5020917;28;20200;-71
2022/08/24 05:58:06;;;;;;;14.57;10.10;;;;;;;16.39;100.00;101238.31;5031899;28;20249;-69
2022/08/24 06:00:32;;;;;;;16.67;9.47;;;;;;;16.42;100.00;101232.91;5029328;28;20226;-70
2022/08/24 06:02:59;;;;;;;14.50;9.20;;;;;;;16.50;100.00;101235.25;5039104;28;20225;-70
2022/08/24 06:05:26;;;;;;;18.13;9.17;;;;;;;16.51;100.00;101234.31;5046258;28;20195;-70
2022/08/24 06:07:52;;;;;;;12.83;9.13;;;;;;;16.53;100.00;101235.09;5023047;28;20196;-70
2022/08/24 06:10:20;;;;;;;13.37;8.80;;;;;;;16.54;100.00;101238.63;5023372;28;20223;-70
2022/08/24 06:12:48;;;;;;;13.13;8.10;;;;;;;16.60;100.00;101230.44;5041836;28;20245;-70
2022/08/24 06:15:15;;;;;;;13.00;8.77;;;;;;;16.75;100.00;101240.34;5045931;28;20286;-70
2022/08/24 06:17:41;;;;;;;10.63;7.70;;;;;;;16.85;100.00;101238.22;5041255;28;20597;-70
2022/08/24 06:20:10;;;;;;;11.37;8.23;;;;;;;16.89;100.00;101239.78;5047109;28;20674;-70
2022/08/24 06:22:37;;;;;;;10.57;7.60;;;;;;;16.89;100.00;101238.94;5038697;28;20229;-70
2022/08/24 06:27:48;;;;;;;14.17;8.67;;;;;;;16.95;100.00;101243.94;4992074;28;20208;-70
2022/08/24 06:30:15;;;;;;;16.30;8.77;;;;;;;17.05;100.00;101244.41;5022886;28;20199;-70
2022/08/24 06:33:05;;;;;;;11.23;8.07;;;;;;;17.09;100.00;101244.19;5017181;28;20680;-70
2022/08/24 06:35:41;;;;;;;13.10;8.63;;;;;;;17.17;100.00;101242.09;5049220;28;20289;-70
2022/08/24 06:38:08;;;;;;;9.77;6.97;;;;;;;17.19;100.00;101240.22;5046338;28;20209;-70
2022/08/24 06:40:35;;;;;;;9.63;7.17;;;;;;;17.34;100.00;101245.75;5024604;28;20195;-70
2022/08/24 06:43:03;;;;;;;14.30;7.87;;;;;;;17.31;100.00;101246.75;5044207;28;20264;-70
2022/08/24 06:45:59;;;;;;;14.23;7.83;;;;;;;17.45;100.00;101239.97;5036293;28;20260;-71
2022/08/24 06:48:30;;;;;;;11.13;7.43;;;;;;;17.54;100.00;101245.72;5051023;28;20195;-70
2022/08/24 06:50:57;;;;;;;12.87;7.73;;;;;;;17.50;100.00;101238.88;5042713;28;20210;-70
2022/08/24 06:53:24;;;;;;;9.93;6.80;;;;;;;17.49;100.00;101239.78;5044772;28;20249;-70
2022/08/24 06:55:52;;;;;;;9.73;7.40;;;;;;;17.51;100.00;101245.84;5023484;28;20192;-70
2022/08/24 06:58:20;;;;;;;10.97;6.80;;;;;;;17.51;100.00;101248.47;5045536;28;20234;-70
2022/08/24 07:00:47;;;;;;;12.60;7.23;;;;;;;17.62;100.00;101255.03;5043593;28;20202;-70
2022/08/24 07:03:14;;;;;;;11.87;7.07;;;;;;;17.60;100.00;101255.13;5047076;28;20223;-70
2022/08/24 07:05:50;;;;;;;12.20;7.10;;;;;;;17.71;100.00;101266.03;5028075;28;20195;-70
2022/08/24 07:08:46;;;;;;;15.33;7.53;;;;;;;17.75;100.00;101262.31;5039069;28;20672;-69
2022/08/24 07:11:17;;;;;;;10.03;6.87;;;;;;;17.88;100.00;101262.63;5048702;28;20282;-70
2022/08/24 07:13:46;;;;;;;13.80;8.53;;;;;;;17.91;100.00;101265.13;5047621;28;20293;-70
2022/08/24 07:16:14;;;;;;;10.93;6.90;;;;;;;18.00;100.00;101276.19;5024979;28;20708;-69
2022/08/24 07:18:43;;;;;;;11.30;7.20;;;;;;;18.02;100.00;101284.91;5030751;28;20211;-70
2022/08/24 07:21:09;;;;;;;12.37;7.47;;;;;;;17.97;100.00;101278.03;5041306;28;20277;-70
2022/08/24 07:23:46;;;;;;;14.73;7.67;;;;;;;17.94;100.00;101272.03;5021056;28;20224;-70
2022/08/24 07:26:18;;;;;;;13.80;7.47;;;;;;;18.03;100.00;101274.28;5030775;28;20723;-70
2022/08/24 07:28:45;;;;;;;11.33;6.93;;;;;;;18.09;100.00;101281.03;5015239;28;20892;-70
2022/08/24 07:31:14;;;;;;;13.70;7.13;;;;;;;18.09;100.00;101281.03;5049785;28;20211;-70
2022/08/24 07:33:48;;;;;;;12.00;7.67;;;;;;;18.19;100.00;101278.78;5027717;28;20306;-69
2022/08/24 07:36:16;;;;;;;10.57;6.90;;;;;;;18.25;100.00;101281.16;5035226;28;20526;-69
2022/08/24 07:38:43;;;;;;;11.83;7.90;;;;;;;18.34;100.00;101284.19;5046948;28;20206;-69
2022/08/24 07:41:09;;;;;;;10.30;6.13;;;;;;;18.44;100.00;101286.41;5044322;28;20271;-70
2022/08/24 07:43:36;;;;;;;10.73;6.63;;;;;;;18.47;100.00;101294.19;5031259;28;20738;-70
2022/08/24 07:46:05;;;;;;;10.77;6.73;;;;;;;18.57;100.00;101290.16;5051560;28;20195;-70
2022/08/24 07:48:31;;;;;;;11.43;6.07;;;;;;;18.63;100.00;101292.50;5033426;28;20698;-71
2022/08/24 07:50:58;;;;;;;11.70;6.80;;;;;;;18.65;100.00;101297.72;5036435;28;20613;-70
2022/08/24 07:53:25;;;;;;;9.73;6.40;;;;;;;18.77;100.00;101294.47;5036643;28;20723;-70
2022/08/24 07:55:54;;;;;;;10.87;6.37;;;;;;;18.91;100.00;101293.81;5024058;28;20207;-70
2022/08/24 07:58:20;;;;;;;10.63;6.20;;;;;;;19.00;100.00;101292.47;5024999;28;20871;-70
2022/08/24 08:00:48;;;;;;;10.60;7.10;;;;;;;19.10;100.00;101291.06;5027521;28;20673;-70
2022/08/24 08:03:15;;;;;;;9.87;6.70;;;;;;;19.22;100.00;101290.41;5048825;28;20740;-70
2022/08/24 08:05:44;;;;;;;9.17;6.17;;;;;;;19.39;100.00;101294.84;5032173;28;20212;-70
2022/08/24 08:08:11;;;;;;;11.53;7.10;;;;;;;19.42;100.00;101292.03;5025815;28;20199;-70
2022/08/24 08:10:39;;;;;;;10.27;6.43;;;;;;;19.65;100.00;101295.25;5020609;28;20603;-70
2022/08/24 08:13:07;;;;;;;8.57;6.10;;;;;;;19.65;100.00;101297.91;5024445;28;20254;-70
2022/08/24 08:15:34;;;;;;;9.63;5.97;;;;;;;19.80;100.00;101297.09;5028167;28;20262;-70
2022/08/24 08:18:07;;;;;;;8.77;5.43;;;;;;;19.93;100.00;101307.00;5024169;28;20677;-69
2022/08/24 08:20:39;;;;;;;9.73;5.78;;;;;;;20.03;100.00;101300.25;5028264;28;20230;-70
2022/08/24 08:26:07;;;;;;;8.63;6.13;;;;;;;20.26;100.00;101304.28;5042515;28;20431;-69
2022/08/24 08:28:44;;;;;;;9.48;5.95;;;;;;;20.42;100.00;101299.84;5051135;28;20302;-70
2022/08/24 08:31:11;;;;;;;8.55;6.40;;;;;;;20.57;100.00;101303.41;5037013;28;20237;-70
2022/08/24 08:33:39;;;;;;;8.10;6.05;;;;;;;20.51;100.00;101305.53;5026598;28;20224;-70
2022/08/24 08:36:10;;;;;;;7.57;5.43;;;;;;;20.70;100.00;101308.03;5033137;28;20623;-69
2022/08/24 08:38:42;;;;;;;10.75;5.95;;;;;;;20.80;100.00;101319.78;5030602;28;20212;-70
2022/08/24 08:41:47;;;;;;;7.88;5.45;;;;;;;20.95;100.00;101310.94;5026400;28;20207;-70
2022/08/24 08:44:28;;;;;;;6.68;5.25;;;;;;;21.14;100.00;101313.38;5032447;28;20220;-70
2022/08/24 08:47:06;;;;;;;5.72;4.97;;;;;;;21.20;100.00;101313.94;5029064;28;20198;-71
2022/08/24 08:50:12;;;;;;;5.40;4.38;;;;;;;21.09;100.00;101312.78;5043607;28;20668;-70
2022/08/24 08:52:58;;;;;;;6.20;4.45;;;;;;;21.17;100.00;101317.63;5037203;28;20221;-71
2022/08/24 08:55:30;;;;;;;6.55;4.85;;;;;;;21.17;100.00;101328.22;5025340;28;20333;-70
2022/08/24 08:58:16;;;;;;;7.25;5.18;;;;;;;21.11;100.00;101321.50;5020207;28;20211;-70
2022/08/24 09:00:55;;;;;;;5.47;4.78;;;;;;;21.14;100.00;101323.97;5025773;28;20206;-70
2022/08/24 09:03:32;;;;;;;7.75;5.07;;;;;;;21.23;100.00;101327.88;5025057;28;20718;-70
2022/08/24 09:06:34;;;;;;;5.78;4.60;;;;;;;21.38;100.00;101321.63;5039228;28;20782;-70
2022/08/24 09:09:20;;;;;;;5.97;4.65;;;;;;;21.29;100.00;101326.66;5045638;28;20230;-70
2022/08/24 09:11:54;;;;;;;7.75;5.20;;;;;;;21.28;100.00;101315.19;5050801;28;20648;-70
2022/08/24 09:14:57;;;;;;;6.30;4.57;;;;;;;21.48;100.00;101321.97;5043203;28;20248;-70
2022/08/24 09:17:41;;;;;;;8.95;6.05;;;;;;;21.43;100.00;101316.06;5024211;28;20222;-72
2022/08/24 09:20:22;;;;;;;6.90;5.35;;;;;;;21.72;100.00;101321.38;5036214;28;20286;-72
2022/08/24 09:23:02;;;;;;;6.95;5.13;;;;;;;21.91;100.00;101313.97;5024443;28;20207;-71
2022/08/24 09:25:40;;;;;;;8.38;5.28;;;;;;;21.91;100.00;101313.97;5027132;28;20219;-74
2022/08/24 09:28:34;;;;;;;7.97;5.65;;;;;;;21.87;100.00;101311.63;5022562;28;20223;-71
2022/08/24 09:31:31;;;;;;;7.70;5.63;;;;;;;22.10;100.00;101313.66;5034169;28;20207;-71
2022/08/24 09:34:07;;;;;;;9.68;6.18;;;;;;;22.01;100.00;101322.22;5043179;28;20229;-69
2022/08/24 09:36:47;;;;;;;7.40;5.30;;;;;;;21.99;100.00;101318.81;5047359;28;20187;-69
2022/08/24 09:39:25;;;;;;;7.93;5.28;;;;;;;21.97;100.00;101327.81;5046999;28;20210;-68
2022/08/24 09:42:36;;;;;;;7.22;5.28;;;;;;;22.13;100.00;101320.59;5036793;28;20718;-70
2022/08/24 09:45:36;;;;;;;9.07;5.00;;;;;;;22.31;100.00;101324.75;5042849;28;21072;-69
2022/08/24 09:48:35;;;;;;;8.88;6.22;;;;;;;22.32;100.00;101322.94;5037180;28;20211;-70
2022/08/24 09:51:26;;;;;;;6.88;5.45;;;;;;;22.34;100.00;101320.19;5033385;28;20213;-70
2022/08/24 09:54:24;;;;;;;8.65;5.85;;;;;;;22.45;100.00;101318.53;5042075;28;20203;-69
2022/08/24 09:57:08;;;;;;;7.07;5.10;;;;;;;22.64;100.00;101312.03;5026819;28;20207;-69
2022/08/24 09:59:52;;;;;;;6.93;5.78;;;;;;;22.58;100.00;101318.59;5043782;28;20196;-69
2022/08/24 10:02:39;;;;;;;8.23;5.40;;;;;;;22.69;100.00;101316.09;5037356;28;20198;-70
2022/08/24 10:05:12;;;;;;;5.82;4.80;;;;;;;22.69;100.00;101317.91;5041276;28;20218;-72
2022/08/24 10:07:44;;;;;;;6.57;4.97;;;;;;;22.81;100.00;101322.41;5033748;28;20680;-68
2022/08/24 10:10:21;;;;;;;7.78;5.82;;;;;;;22.98;100.00;101315.09;5040523;28;20274;-70
2022/08/24 10:13:03;;;;;;;6.35;5.50;;;;;;;22.95;100.00;101309.97;5040121;28;20199;-70
2022/08/24 10:15:34;;;;;;;8.82;5.25;;;;;;;22.97;100.00;101321.34;5041272;28;20624;-69
2022/08/24 10:18:23;;;;;;;5.88;5.07;;;;;;;23.03;100.00;101313.81;5039552;28;20676;-70
2022/08/24 10:21:00;;;;;;;6.55;4.68;;;;;;;23.29;100.00;101303.25;5038187;28;20211;-69
2022/08/24 10:23:43;;;;;;;6.32;4.85;;;;;;;23.11;100.00;101305.34;5038759;28;20679;-69
2022/08/24 10:26:19;;;;;;;8.07;5.07;;;;;;;23.19;100.00;101300.34;5039901;28;20208;-69
2022/08/24 10:29:11;;;;;;;5.13;4.45;;;;;;;23.52;100.00;101287.50;5043665;28;20280;-70
2022/08/24 10:31:49;;;;;;;5.72;4.72;;;;;;;23.51;100.00;101291.94;5041960;28;20229;-68
2022/08/24 10:34:29;;;;;;;5.65;4.82;;;;;;;23.23;100.00;101293.84;5052033;28;20223;-69
2022/08/24 10:37:20;;;;;;;6.75;5.20;;;;;;;23.25;100.00;101291.97;5044902;28;20219;-69
2022/08/24 10:40:18;;;;;;;8.60;4.85;;;;;;;23.25;100.00;101291.97;5042294;28;20199;-69
2022/08/24 10:43:35;;;;;;;6.03;4.45;;;;;;;23.39;100.00;101296.34;5033375;28;20212;-69
2022/08/24 10:46:25;;;;;;;4.70;4.05;;;;;;;23.44;100.00;101294.16;5042939;28;20195;-71
2022/08/24 10:49:40;;;;;;;6.57;4.75;;;;;;;23.25;100.00;101299.94;5045214;28;20200;-69
2022/08/24 10:52:43;;;;;;;6.43;4.70;;;;;;;23.36;100.00;101300.97;5039347;28;20202;-69
2022/08/24 10:55:18;;;;;;;7.18;4.43;;;;;;;23.51;100.00;101291.94;5046689;28;20199;-70
2022/08/24 10:57:59;;;;;;;10.20;5.47;;;;;;;23.34;100.00;101301.13;5049561;28;20237;-70
2022/08/24 11:00:28;;;;;;;6.72;4.57;;;;;;;23.39;100.00;101300.78;5047746;28;20207;-70
2022/08/24 11:03:09;;;;;;;5.22;4.47;;;;;;;23.23;100.00;101303.66;5050383;28;20302;-69
2022/08/24 11:05:41;;;;;;;5.82;4.90;;;;;;;23.19;100.00;101308.31;5046836;28;20214;-69
2022/08/24 11:08:08;;;;;;;6.43;4.72;;;;;;;23.24;100.00;101298.22;5046755;28;20210;-69
2022/08/24 11:10:37;;;;;;;8.48;5.38;;;;;;;23.32;100.00;101304.81;5048193;28;20710;-72
2022/08/24 11:13:20;;;;;;;6.88;4.47;;;;;;;23.40;100.00;101289.19;5047507;28;20218;-74
2022/08/24 11:15:50;;;;;;;9.75;4.50;;;;;;;23.74;100.00;101290.31;5042753;28;20187;-70
2022/08/24 11:18:18;;;;;;;5.53;4.53;;;;;;;24.05;100.00;101293.47;5048712;28;20203;-69
2022/08/24 11:20:47;;;;;;;8.55;4.55;;;;;;;24.36;100.00;101291.22;5047977;28;20298;-70
2022/08/24 11:23:17;;;;;;;7.07;4.60;;;;;;;24.50;100.00;101296.38;5047145;28;20223;-71
2022/08/24 11:25:54;;;;;;;6.75;4.60;;;;;;;24.37;100.00;101296.44;5039603;28;20222;-71
2022/08/24 11:28:29;;;;;;;6.43;4.90;;;;;;;24.07;100.00;101299.53;5045544;28;20203;-69
2022/08/24 11:30:55;;;;;;;7.90;4.63;;;;;;;23.88;100.00;101288.50;5042342;28;20202;-70
2022/08/24 11:33:30;;;;;;;7.50;4.25;;;;;;;23.89;100.00;101290.22;5051718;28;20738;-70
2022/08/24 11:35:59;;;;;;;5.45;4.65;;;;;;;24.01;100.00;101284.00;5044546;28;20203;-69
2022/08/24 11:38:27;;;;;;;6.40;4.88;;;;;;;24.23;100.00;101291.28;5049117;28;20202;-71
2022/08/24 11:40:59;;;;;;;6.20;4.53;;;;;;;24.21;100.00;101295.03;5040919;28;20252;-70
2022/08/24 11:43:38;;;;;;;5.38;4.60;;;;;;;24.19;100.00;101290.66;5041643;28;20831;-70
2022/08/24 11:46:23;;;;;;;5.50;4.47;;;;;;;24.37;100.00;101296.44;5047021;28;20923;-69
2022/08/24 11:49:00;;;;;;;6.75;5.00;;;;;;;24.66;100.00;101293.47;5042565;28;20210;-73